Accueil
METAR-TAF:

METAR-TAF

Aéroports :

Almagro, Espagne

latitude: 38-57-11N, longitude: 3-44-29W, altitude: 629 m

Observation

Le bulletin a été fait il y a 33 minutes, à 14:00 UTC
Vent 17 kt de ouest, variant entre sud-ouest et ouest/nord-ouest
Température 9°C
Humidité 81%
Pression 1020 hPa
Visibilité 10 km ou plus
Nuages fragmentés à une hauteur de 1600 ft

METAR: LEAO 121400Z 26017KT 230V290 9999 BKN016 09/06 Q1020

Heure: 15:33 (14:33 UTC)

Prévision

Le bulletin a été fait il y a 3 heures et 33 minutes, à 11:00 UTC
Prévision valable du 12 à 12 UTC au 12 à 21 UTC
Vent 16 kt de ouest
Visibilité 10 km ou plus
Nuages fragmentés à une hauteur de 1500 ft
Probabilité 40% :
Temporairement
du 12 à 12 UTC au 12 à 21 UTC
Vent 20 kt de ouest avec des rafales jusqu'à 32 kt

TAF: LEAO 121100Z 1212/1221 27016KT 9999 BKN015 PROB40 TEMPO 1212/1221 27020G32KT

Observations et prévisions météorologiques de plus de 4000 aéroports (messages METAR et TAF).

Les stations disponibles sont représentées par des disques jaunes et rouges sur la carte.

Passer la souris dessus pour voir le nom de la station.

Cliquer dessus pour voir les observations et prévisions météorologiques.

Pour changer de carte: cliquez sur les boutons verts avec une croix noire pour zoomer, sur le bouton vert avec un tiret pour effectuer un zoom arrière, ou sur les flèches vertes pour les cartes adjacentes.


METAR-TAF: